Time;durP1;ratioP1;P1;durP2;ratioP2;P2;SDS_P1;SDS_P2;PMS_P1;PMS_P2;Temp;Humidity;BMP_temperature;BMP_pressure;BME280_temperature;BME280_humidity;BME280_pressure;Samples;Min_cycle;Max_cycle;Signal;HPM_P1;HPM_P2
2023/05/02 00:01:52;;;;;;;32.30;22.00;;;14.00;81.60;;;13.28;65.00;100813.66;5079482;28;20515;-80
2023/05/02 00:04:20;;;;;;;33.22;22.63;;;14.00;81.60;;;13.24;64.94;100809.78;5088233;28;20545;-80
2023/05/02 00:06:47;;;;;;;32.85;22.88;;;14.00;81.40;;;13.22;64.91;100811.84;5082896;28;20086;-83
2023/05/02 00:09:15;;;;;;;35.70;25.02;;;14.00;81.60;;;13.22;64.83;100813.72;5087223;28;20151;-81
2023/05/02 00:11:43;;;;;;;36.65;25.20;;;13.90;81.60;;;13.17;64.99;100822.38;5087039;28;20035;-80
2023/05/02 00:14:10;;;;;;;37.85;24.85;;;13.90;81.50;;;13.14;64.93;100826.31;5088457;28;20079;-82
2023/05/02 00:16:38;;;;;;;38.97;26.05;;;13.90;81.60;;;13.13;64.97;100829.22;5078352;28;20043;-81
2023/05/02 00:19:05;;;;;;;37.25;25.75;;;13.80;81.60;;;13.11;65.36;100829.44;5076497;28;20075;-83
2023/05/02 00:21:32;;;;;;;41.20;28.08;;;13.80;81.70;;;13.10;65.00;100835.00;5085023;28;20036;-82
2023/05/02 00:24:00;;;;;;;40.50;27.45;;;13.80;81.70;;;13.09;65.05;100841.41;5077997;28;20040;-81
2023/05/02 00:26:27;;;;;;;41.67;27.08;;;13.80;81.80;;;13.07;65.12;100830.09;5087834;28;20042;-83
2023/05/02 00:28:56;;;;;;;44.63;28.77;;;13.70;82.00;;;13.07;65.47;100832.75;5070391;28;20105;-81
2023/05/02 00:31:23;;;;;;;45.67;29.05;;;13.80;82.20;;;13.07;65.49;100836.25;5070499;28;20072;-82
2023/05/02 00:33:50;;;;;;;44.15;30.35;;;13.80;82.30;;;13.09;65.57;100838.75;5086907;28;20403;-80
2023/05/02 00:36:19;;;;;;;44.85;29.02;;;13.70;82.50;;;13.08;65.65;100835.25;5086418;28;20461;-81
2023/05/02 00:38:46;;;;;;;49.63;29.70;;;13.70;82.50;;;13.07;65.68;100836.25;5054735;28;20041;-82
2023/05/02 00:41:14;;;;;;;49.25;31.35;;;13.80;82.80;;;13.10;65.97;100843.06;5084107;28;20115;-82
2023/05/02 00:43:41;;;;;;;46.15;30.85;;;13.70;82.90;;;13.10;65.99;100840.38;5081890;28;20112;-82
2023/05/02 00:46:11;;;;;;;48.90;32.20;;;13.70;82.90;;;13.11;66.27;100844.69;5087196;28;20038;-80
2023/05/02 00:48:39;;;;;;;48.22;30.63;;;13.80;83.20;;;13.13;66.37;100847.97;5064883;28;20051;-82
2023/05/02 00:51:07;;;;;;;45.97;31.80;;;13.80;83.20;;;13.13;66.15;100848.78;5084898;28;20044;-81
2023/05/02 00:53:35;;;;;;;47.30;31.98;;;13.80;83.10;;;13.14;66.38;100841.56;5083962;28;20051;-82
2023/05/02 00:56:03;;;;;;;47.80;31.83;;;13.80;83.50;;;13.14;66.40;100841.56;5070252;28;20043;-80
2023/05/02 00:58:30;;;;;;;48.70;33.00;;;13.80;83.30;;;13.14;66.53;100839.72;5054387;28;20088;-80
2023/05/02 01:01:21;;;;;;;45.47;33.00;;;13.80;83.30;;;13.13;66.06;100834.59;5088024;28;20545;-82
2023/05/02 01:04:04;;;;;;;47.72;33.42;;;13.80;83.40;;;13.11;66.47;100831.28;5063455;28;20093;-81
2023/05/02 01:06:49;;;;;;;49.42;33.13;;;13.80;83.30;;;13.08;66.43;100837.09;5068714;28;20063;-81
2023/05/02 01:09:37;;;;;;;48.47;33.42;;;13.80;83.10;;;13.05;66.30;100833.00;5087835;28;20040;-80
2023/05/02 01:12:15;;;;;;;52.30;33.42;;;13.80;82.90;;;13.01;66.15;100842.50;5060405;28;20078;-82
2023/05/02 01:14:46;;;;;;;46.63;31.95;;;13.70;82.70;;;12.99;65.95;100847.25;5065016;28;20071;-82
2023/05/02 01:17:17;;;;;;;49.90;31.98;;;13.70;82.70;;;12.98;65.85;100850.97;5088347;28;20044;-81
2023/05/02 01:19:56;;;;;;;51.23;33.77;;;13.70;82.60;;;12.96;65.95;100854.91;5069436;28;20071;-82
2023/05/02 01:22:26;;;;;;;49.58;33.03;;;13.70;82.70;;;12.94;66.02;100856.97;5077739;28;20048;-83
2023/05/02 01:25:10;;;;;;;48.38;33.55;;;13.60;82.70;;;12.92;65.94;100861.72;5064826;28;20048;-80
2023/05/02 01:27:51;;;;;;;49.30;33.42;;;13.60;82.80;;;12.91;66.30;100866.25;5069093;28;20044;-81
2023/05/02 01:30:21;;;;;;;;;;;13.60;83.10;;;12.91;66.68;100862.75;5088827;28;20054;-82
2023/05/02 01:32:49;;;;;;;59.25;35.67;;;13.60;83.70;;;12.89;66.92;100866.47;5065827;28;20032;-82
2023/05/02 01:35:18;;;;;;;55.92;36.40;;;13.50;83.80;;;12.88;67.30;100870.19;5080813;28;20041;-80
2023/05/02 01:37:47;;;;;;;62.15;37.85;;;13.50;84.10;;;12.86;67.25;100877.59;5065003;28;20040;-81
2023/05/02 01:40:19;;;;;;;60.20;37.45;;;13.50;84.30;;;12.86;67.44;100885.63;5069630;28;20127;-81
2023/05/02 01:42:48;;;;;;;61.58;38.63;;;13.50;84.30;;;12.86;67.51;100888.31;5082885;28;20040;-80
2023/05/02 01:45:16;;;;;;;63.15;37.53;;;13.50;84.40;;;12.86;67.42;100884.81;5069496;28;20081;-80
2023/05/02 01:47:47;;;;;;;63.35;37.17;;;13.50;84.50;;;12.81;67.76;100896.19;5089321;28;20036;-81
2023/05/02 01:50:20;;;;;;;59.47;35.92;;;13.40;84.70;;;12.78;67.68;100896.59;5072817;28;20054;-82
2023/05/02 01:52:49;;;;;;;59.80;35.55;;;13.40;84.70;;;12.77;67.64;100894.13;5072512;28;20138;-80
2023/05/02 01:55:19;;;;;;;59.65;34.90;;;13.40;84.70;;;12.77;67.42;100903.00;5088098;28;20063;-83
2023/05/02 01:57:49;;;;;;;56.25;32.45;;;13.40;84.50;;;12.76;67.29;100904.03;5087967;28;20614;-82
2023/05/02 02:00:18;;;;;;;52.75;31.90;;;13.30;84.30;;;12.76;67.29;100901.34;5072603;28;20051;-82
2023/05/02 02:02:48;;;;;;;53.88;31.90;;;13.40;84.20;;;12.79;67.17;100914.31;5069392;28;20075;-81
2023/05/02 02:05:18;;;;;;;51.53;30.83;;;13.40;84.10;;;12.80;67.22;100909.78;5089320;28;20043;-81
2023/05/02 02:07:46;;;;;;;50.70;30.30;;;13.40;84.10;;;12.82;67.31;100924.56;5072903;28;20134;-79
2023/05/02 02:10:13;;;;;;;54.47;32.13;;;13.50;84.40;;;12.81;67.24;100924.81;5068696;28;20075;-82
2023/05/02 02:12:44;;;;;;;52.30;31.63;;;13.50;84.30;;;12.82;67.19;100913.88;5080050;28;20097;-82
2023/05/02 02:15:19;;;;;;;48.47;27.60;;;13.50;84.30;;;12.83;67.22;100918.22;5088271;28;20055;-82
2023/05/02 02:17:55;;;;;;;48.85;29.05;;;13.50;84.40;;;12.81;67.42;100920.25;5067629;28;20055;-81
2023/05/02 02:20:22;;;;;;;46.22;27.38;;;13.40;84.50;;;12.82;67.25;100923.75;5086558;28;20043;-81
2023/05/02 02:22:51;;;;;;;43.13;25.10;;;13.50;84.20;;;12.82;67.19;100924.56;5072875;28;20102;-81
2023/05/02 02:25:19;;;;;;;44.45;25.42;;;13.50;84.30;;;12.84;67.12;100929.75;5072120;28;20044;-81
2023/05/02 02:27:47;;;;;;;46.38;25.75;;;13.50;84.30;;;12.83;67.28;100931.59;5083096;28;20047;-81
2023/05/02 02:30:15;;;;;;;40.42;24.48;;;13.50;84.30;;;12.84;67.26;100927.06;5071544;28;20040;-81
2023/05/02 02:32:42;;;;;;;39.47;22.30;;;13.50;84.10;;;12.84;67.18;100927.88;5089825;28;20150;-81
2023/05/02 02:35:12;;;;;;;41.28;23.67;;;13.50;84.30;;;12.84;67.03;100933.22;5088968;28;20101;-82
2023/05/02 02:37:46;;;;;;;40.45;22.67;;;13.50;84.10;;;12.84;67.11;100932.41;5088761;28;20060;-82
2023/05/02 02:40:23;;;;;;;39.20;21.58;;;13.50;84.30;;;12.83;67.10;100930.75;5068412;28;20062;-81
2023/05/02 02:43:03;;;;;;;37.40;21.50;;;13.50;84.30;;;12.83;67.25;100931.59;5082477;28;20164;-82
2023/05/02 02:45:38;;;;;;;36.67;20.98;;;13.50;84.10;;;12.84;67.30;100940.44;5088818;28;20048;-80
2023/05/02 02:48:19;;;;;;;38.85;21.08;;;13.50;84.20;;;12.84;67.47;100937.75;5067703;28;20051;-81
2023/05/02 02:50:59;;;;;;;31.52;19.17;;;13.40;84.40;;;12.80;67.40;100942.72;5089547;28;20072;-81
2023/05/02 02:53:36;;;;;;;35.88;20.10;;;13.50;84.30;;;12.81;67.29;100943.53;5067097;28;20135;-81
2023/05/02 02:56:13;;;;;;;31.30;18.88;;;13.50;84.50;;;12.80;67.26;100956.09;5061347;28;20090;-82
2023/05/02 02:58:55;;;;;;;34.55;19.60;;;13.50;84.30;;;12.80;67.53;100953.44;5069078;28;20055;-80
2023/05/02 03:01:25;;;;;;;34.58;18.95;;;13.50;84.50;;;12.77;67.32;100951.16;5088609;28;20122;-81
2023/05/02 03:03:53;;;;;;;33.97;18.90;;;13.40;84.50;;;12.69;68.01;100951.44;5080439;28;20041;-81
2023/05/02 03:06:22;;;;;;;34.70;19.65;;;13.40;84.90;;;12.69;68.01;100953.25;5084853;28;20068;-81
2023/05/02 03:08:50;;;;;;;33.05;18.25;;;13.40;84.80;;;12.69;67.91;100961.28;5071830;28;20040;-82
2023/05/02 03:11:20;;;;;;;30.15;16.98;;;13.30;84.90;;;12.70;67.74;100961.09;5071281;28;20044;-82
2023/05/02 03:13:47;;;;;;;28.73;16.02;;;13.30;85.10;;;12.70;67.75;100963.78;5072185;28;20054;-82
2023/05/02 03:16:35;;;;;;;26.90;15.38;;;13.40;85.10;;;12.67;67.40;100958.84;5070060;28;20040;-83
2023/05/02 03:19:06;;;;;;;26.05;14.95;;;13.40;84.60;;;12.69;67.26;100956.78;5066784;28;20380;-82
2023/05/02 03:21:35;;;;;;;28.98;14.27;;;13.30;84.60;;;12.67;67.30;100964.19;5071856;28;20044;-81
2023/05/02 03:24:10;;;;;;;26.42;14.55;;;13.30;84.50;;;12.67;67.33;100966.88;5065002;28;20504;-81
2023/05/02 03:26:37;;;;;;;25.92;13.65;;;13.30;84.50;;;12.68;67.35;100967.69;5067820;28;20560;-81
2023/05/02 03:29:07;;;;;;;24.58;12.57;;;13.30;84.40;;;12.70;67.17;100965.63;5068461;28;20054;-82
2023/05/02 03:31:39;;;;;;;24.80;13.35;;;13.30;84.30;;;12.72;67.25;100966.22;5056743;28;20079;-81
2023/05/02 03:34:06;;;;;;;26.88;12.93;;;13.40;84.40;;;12.72;67.08;100961.69;5072630;28;20147;-81
2023/05/02 03:36:36;;;;;;;22.02;12.98;;;13.40;84.30;;;12.73;67.33;100968.69;5069747;28;20047;-82
2023/05/02 03:39:03;;;;;;;26.90;13.00;;;13.40;84.30;;;12.73;67.06;100982.06;5065663;28;20045;-81
2023/05/02 03:41:30;;;;;;;23.10;13.13;;;13.40;84.10;;;12.75;67.04;100980.00;5071104;28;20039;-81
2023/05/02 03:44:04;;;;;;;23.83;13.15;;;13.40;84.10;;;12.75;66.97;100973.84;5070937;28;20059;-81
2023/05/02 03:46:32;;;;;;;24.48;12.27;;;13.40;84.10;;;12.75;67.17;100971.97;5064120;28;20044;-82
2023/05/02 03:48:59;;;;;;;27.23;14.27;;;13.40;84.10;;;12.75;67.03;100971.97;5067122;28;20040;-80
2023/05/02 03:51:26;;;;;;;25.73;13.77;;;13.50;84.20;;;12.76;67.17;100973.63;5070468;28;20054;-80
2023/05/02 03:53:58;;;;;;;27.17;13.52;;;13.50;84.10;;;12.75;67.05;100982.69;5067962;28;20051;-81
2023/05/02 03:56:26;;;;;;;26.23;14.32;;;13.40;83.90;;;12.77;67.16;100977.94;5071335;28;20048;-80
2023/05/02 03:59:14;;;;;;;23.85;13.52;;;13.50;84.10;;;12.77;67.20;100990.50;5068796;28;20044;-82
2023/05/02 04:01:42;;;;;;;25.23;13.30;;;13.50;84.10;;;12.76;67.30;100988.88;5068413;28;20056;-81
2023/05/02 04:04:11;;;;;;;24.60;13.88;;;13.50;84.10;;;12.77;67.44;100985.97;5067986;28;20729;-78
2023/05/02 04:06:45;;;;;;;27.40;14.95;;;13.50;84.40;;;12.78;67.46;100992.94;5084108;28;20044;-76
2023/05/02 04:09:14;;;;;;;26.55;15.43;;;13.50;84.30;;;12.79;67.39;100985.78;5070111;28;20075;-83
2023/05/02 04:11:49;;;;;;;27.85;15.93;;;13.50;84.30;;;12.80;67.34;100996.25;5070979;28;20109;-83
2023/05/02 04:14:16;;;;;;;29.75;15.38;;;13.50;84.30;;;12.80;67.27;100995.44;5069194;28;20051;-83
2023/05/02 04:16:48;;;;;;;29.88;16.17;;;13.50;84.20;;;12.79;67.30;101005.31;5063167;28;20043;-85
2023/05/02 04:19:18;;;;;;;28.85;15.30;;;13.50;84.40;;;12.78;67.22;101003.66;5073979;28;20046;-86
2023/05/02 04:21:46;;;;;;;32.10;16.15;;;13.40;84.10;;;12.77;67.64;101004.69;5080788;28;20135;-81
2023/05/02 04:24:16;;;;;;;28.25;15.38;;;13.50;84.50;;;12.77;67.36;101009.22;5071204;28;20126;-81
2023/05/02 04:26:43;;;;;;;31.88;16.75;;;13.60;84.40;;;12.79;67.64;101015.22;5064184;28;20048;-84
2023/05/02 04:29:13;;;;;;;27.55;16.20;;;13.50;84.80;;;12.79;67.81;101010.69;5068881;28;20063;-84
2023/05/02 04:31:40;;;;;;;29.63;16.63;;;13.50;84.90;;;12.79;67.95;101012.53;5078456;28;20059;-86
2023/05/02 04:34:08;;;;;;;33.17;17.02;;;13.50;85.00;;;12.76;68.37;101011.09;5055085;28;20550;-82
2023/05/02 04:36:41;;;;;;;31.85;17.48;;;13.40;85.60;;;12.71;68.81;101015.44;5061544;28;20047;-82
2023/05/02 04:39:12;;;;;;;32.95;17.05;;;13.40;85.90;;;12.71;68.67;101023.47;5064452;28;20135;-80
2023/05/02 04:41:49;;;;;;;31.60;17.40;;;13.40;85.60;;;12.72;68.54;101027.78;5066026;28;20062;-81
2023/05/02 04:44:16;;;;;;;30.23;16.90;;;13.40;85.50;;;12.72;68.85;101025.94;5069591;28;20136;-80
2023/05/02 04:46:44;;;;;;;30.63;16.67;;;13.40;85.70;;;12.68;69.16;101035.41;5068383;28;20101;-81
2023/05/02 04:49:12;;;;;;;30.55;17.23;;;13.40;85.80;;;12.69;69.56;101034.41;5068417;28;20050;-81
2023/05/02 04:51:39;;;;;;;30.23;16.67;;;13.30;86.40;;;12.69;69.41;101042.44;5061698;28;20055;-81
2023/05/02 04:54:08;;;;;;;30.63;15.75;;;13.40;86.50;;;12.69;69.43;101050.47;5059208;28;20183;-83
2023/05/02 04:56:35;;;;;;;32.72;16.85;;;13.30;86.20;;;12.68;69.76;101048.78;5053572;28;20040;-82
2023/05/02 04:59:04;;;;;;;25.92;16.10;;;13.40;86.30;;;12.69;69.55;101053.13;5067197;28;20097;-81
2023/05/02 05:01:32;;;;;;;32.88;17.33;;;13.40;86.30;;;12.69;69.89;101063.84;5062622;28;20040;-82
2023/05/02 05:04:02;;;;;;;31.42;16.38;;;13.40;86.40;;;12.67;70.13;101055.19;5062442;28;20071;-81
2023/05/02 05:06:30;;;;;;;28.90;16.55;;;13.30;86.80;;;12.65;70.21;101067.97;5065483;28;20059;-82
2023/05/02 05:08:58;;;;;;;28.10;15.85;;;13.30;87.00;;;12.66;70.11;101068.78;5063418;28;20041;-82
2023/05/02 05:11:26;;;;;;;26.85;16.08;;;13.30;86.90;;;12.67;70.22;101075.78;5067845;28;20040;-85
2023/05/02 05:13:57;;;;;;;27.02;15.98;;;13.30;86.90;;;12.66;70.39;101071.47;5061974;28;20074;-87
2023/05/02 05:16:27;;;;;;;30.33;15.43;;;13.30;87.30;;;12.67;70.46;101079.25;5107447;23;20147;-91
2023/05/02 05:18:55;;;;;;;31.17;14.95;;;13.30;87.00;;;12.62;70.96;101081.75;5098721;28;20044;-85
2023/05/02 05:21:23;;;;;;;25.55;13.93;;;13.30;87.70;;;12.58;71.21;101085.88;5098621;28;20405;-86
2023/05/02 05:23:51;;;;;;;22.60;13.05;;;13.30;87.70;;;12.55;70.95;101089.81;5097610;28;20050;-86
2023/05/02 05:26:25;;;;;;;24.70;12.60;;;13.20;87.50;;;12.58;70.97;101096.56;5070855;28;20223;-87
2023/05/02 05:28:53;;;;;;;20.92;11.98;;;13.30;87.30;;;12.59;71.08;101095.53;5074965;28;20044;-86
2023/05/02 05:31:23;;;;;;;18.45;11.07;;;13.30;87.70;;;12.58;71.04;101104.59;5083268;28;20123;-90
2023/05/02 05:33:56;;;;;;;18.73;11.27;;;13.20;87.50;;;12.58;70.85;101104.59;5075994;28;20080;-86
2023/05/02 05:36:24;;;;;;;18.38;9.57;;;13.20;87.30;;;12.59;70.82;101116.94;5081587;28;20518;-87
2023/05/02 05:38:51;;;;;;;16.92;10.30;;;13.20;87.30;;;12.54;70.90;101114.06;5080820;28;20435;-88
2023/05/02 05:41:19;;;;;;;17.13;9.20;;;13.20;87.30;;;12.54;70.95;101122.94;5092862;28;20587;-86
2023/05/02 05:43:51;;;;;;;14.75;7.75;;;13.20;87.50;;;12.52;70.60;101121.50;5077322;28;20048;-87
2023/05/02 05:46:19;;;;;;;15.30;7.50;;;13.20;87.10;;;12.51;70.37;101125.19;5078147;28;20052;-86
2023/05/02 05:48:46;;;;;;;13.32;7.68;;;13.20;86.90;;;12.52;70.22;101126.84;5082620;28;20051;-86
2023/05/02 05:51:15;;;;;;;11.63;6.30;;;13.20;86.90;;;12.51;70.00;101126.03;5082805;28;20048;-86
2023/05/02 05:53:42;;;;;;;11.95;5.93;;;13.20;86.60;;;12.50;69.72;101124.38;5080014;28;20078;-86
2023/05/02 05:56:13;;;;;;;10.75;5.90;;;13.20;86.50;;;12.53;69.54;101133.84;5097298;28;20052;-85
2023/05/02 05:58:45;;;;;;;9.63;5.40;;;13.20;86.30;;;12.54;69.40;101135.47;5083273;28;20048;-86
2023/05/02 06:01:14;;;;;;;14.85;6.10;;;13.20;86.30;;;12.56;69.24;101146.81;5078159;28;20044;-86
2023/05/02 06:03:42;;;;;;;12.18;5.55;;;13.20;86.20;;;12.56;69.34;101149.50;5090416;28;20052;-86
2023/05/02 06:06:09;;;;;;;8.18;5.35;;;13.20;86.10;;;12.57;69.33;101151.13;5075172;28;20131;-86
2023/05/02 06:08:37;;;;;;;12.60;5.57;;;13.20;86.20;;;12.56;69.15;101152.97;5082983;28;20090;-86
2023/05/02 06:11:10;;;;;;;9.65;4.90;;;13.20;85.90;;;12.57;69.04;101159.16;5079491;28;20048;-86
2023/05/02 06:13:38;;;;;;;12.35;5.22;;;13.20;86.00;;;12.57;68.84;101156.47;5083274;28;20040;-86
2023/05/02 06:16:06;;;;;;;12.98;4.80;;;13.20;85.80;;;12.57;68.49;101164.50;5075721;28;20045;-86
2023/05/02 06:18:33;;;;;;;13.07;4.90;;;13.20;85.60;;;12.55;68.17;101156.69;5077364;28;20504;-86
2023/05/02 06:21:04;;;;;;;12.15;4.80;;;13.20;85.30;;;12.56;68.37;101165.53;5074132;28;20043;-86
2023/05/02 06:23:32;;;;;;;11.02;5.35;;;13.20;85.30;;;12.58;68.06;101166.16;5076120;28;20047;-87
2023/05/02 06:26:01;;;;;;;11.10;5.15;;;13.20;85.30;;;12.60;68.37;101178.31;5079651;28;20389;-86
2023/05/02 06:28:29;;;;;;;12.95;4.10;;;13.20;85.30;;;12.57;67.00;101178.69;5085971;28;20050;-86
2023/05/02 06:31:00;;;;;;;11.52;4.32;;;13.20;84.30;;;12.55;67.03;101180.78;5084900;28;20048;-86
2023/05/02 06:33:27;;;;;;;8.63;4.00;;;13.20;84.20;;;12.57;67.08;101189.41;5077761;28;20048;-86
2023/05/02 06:35:55;;;;;;;10.68;4.05;;;13.20;84.30;;;12.58;66.76;101187.56;5088493;28;20074;-86
2023/05/02 06:38:23;;;;;;;12.18;4.55;;;13.20;84.10;;;12.62;67.56;101196.81;5076403;28;20064;-86
2023/05/02 06:40:50;;;;;;;9.60;3.90;;;13.20;84.70;;;12.65;67.76;101200.94;5083026;28;20520;-84
2023/05/02 06:43:19;;;;;;;13.18;3.80;;;13.30;84.80;;;12.66;66.33;101192.69;5082615;28;20470;-86
2023/05/02 06:45:47;;;;;;;9.25;3.70;;;13.30;83.80;;;12.66;66.73;101202.59;5086983;28;20040;-87
2023/05/02 06:48:14;;;;;;;10.05;4.10;;;13.30;84.10;;;12.67;66.60;101207.72;5097428;28;20123;-86
2023/05/02 06:50:41;;;;;;;10.52;4.15;;;13.30;83.90;;;12.71;67.02;101208.13;5089674;28;20047;-86
2023/05/02 06:53:08;;;;;;;10.15;3.65;;;13.30;84.60;;;12.72;66.34;101217.81;5080924;28;20072;-85
2023/05/02 06:55:36;;;;;;;8.65;3.60;;;13.30;83.50;;;12.70;65.40;101220.69;5081518;28;20062;-85
2023/05/02 06:58:03;;;;;;;10.77;3.85;;;13.30;82.70;;;12.72;65.28;101215.13;5091806;28;20139;-86
2023/05/02 07:00:32;;;;;;;11.90;4.30;;;13.40;82.80;;;12.74;65.16;101223.81;5091084;28;20050;-86
2023/05/02 07:02:59;;;;;;;14.07;3.75;;;13.40;82.50;;;12.76;65.09;101224.41;5075512;28;20131;-86
2023/05/02 07:05:26;;;;;;;10.85;3.75;;;13.40;82.50;;;12.79;65.13;101229.34;5080732;28;20518;-86
2023/05/02 07:07:53;;;;;;;13.77;3.85;;;13.40;82.50;;;12.79;64.96;101229.34;5086184;28;20039;-85
2023/05/02 07:10:20;;;;;;;9.70;4.00;;;13.40;82.20;;;12.75;64.32;101234.28;5089256;28;20602;-85
2023/05/02 07:12:47;;;;;;;13.80;3.70;;;13.40;81.60;;;12.76;64.80;101235.09;5080798;28;20051;-87
2023/05/02 07:15:15;;;;;;;8.25;3.63;;;13.40;82.00;;;12.76;64.00;101235.94;5085688;28;20134;-87
2023/05/02 07:17:46;;;;;;;10.05;3.78;;;13.40;81.40;;;12.75;63.91;101238.81;5086942;28;20036;-84
2023/05/02 07:20:14;;;;;;;7.07;3.65;;;13.40;81.20;;;12.74;64.11;101247.88;5087832;28;20499;-86
2023/05/02 07:22:41;;;;;;;9.75;3.63;;;13.40;81.40;;;12.74;64.16;101247.88;5081108;28;20458;-86
2023/05/02 07:25:09;;;;;;;8.90;4.00;;;13.40;81.60;;;12.73;63.57;101249.72;5084902;28;20048;-85
2023/05/02 07:27:37;;;;;;;9.70;4.00;;;13.40;80.80;;;12.68;63.53;101251.38;5089336;28;20056;-86
2023/05/02 07:30:05;;;;;;;9.88;4.20;;;13.30;80.90;;;12.65;63.94;101257.16;5089414;28;20062;-86
2023/05/02 07:32:33;;;;;;;9.90;3.95;;;13.30;81.20;;;12.65;64.37;101281.22;5079658;28;20734;-84
2023/05/02 07:35:01;;;;;;;8.88;3.17;;;13.30;81.60;;;12.59;64.35;101266.78;5085151;28;20105;-84
2023/05/02 07:37:34;;;;;;;6.25;2.55;;;13.30;81.60;;;12.53;63.70;101281.00;5085755;28;20054;-84
2023/05/02 07:40:01;;;;;;;7.90;2.83;;;13.20;81.00;;;12.47;63.49;101285.31;5086109;28;20036;-84
2023/05/02 07:42:32;;;;;;;8.40;3.53;;;13.20;80.80;;;12.46;63.57;101288.19;5080026;28;20047;-89
2023/05/02 07:44:59;;;;;;;7.28;2.90;;;13.10;80.80;;;12.42;63.21;101287.78;5079050;28;20036;-89
2023/05/02 07:47:28;;;;;;;4.78;2.67;;;13.10;80.70;;;12.36;63.72;101293.94;5080301;28;20143;-89
2023/05/02 07:49:56;;;;;;;5.57;2.90;;;13.10;80.80;;;12.31;63.95;101307.94;5079124;28;20071;-89
2023/05/02 07:52:24;;;;;;;7.97;4.03;;;13.00;81.30;;;12.30;64.34;101308.97;5087658;28;20114;-88
2023/05/02 07:54:52;;;;;;;6.82;3.35;;;13.00;81.70;;;12.27;64.18;101312.03;5076846;28;20080;-89
2023/05/02 07:57:19;;;;;;;8.68;3.17;;;13.00;81.60;;;12.28;64.61;101316.34;5089411;28;20123;-89
2023/05/02 07:59:46;;;;;;;5.43;3.10;;;13.00;82.10;;;12.28;64.42;101318.19;5095104;28;20040;-89
2023/05/02 08:02:16;;;;;;;6.57;2.72;;;12.90;81.90;;;12.27;64.67;101322.72;5080186;28;20067;-89
2023/05/02 08:04:43;;;;;;;9.80;3.30;;;12.90;82.20;;;12.25;64.47;101321.25;5085217;28;20537;-89
2023/05/02 08:07:11;;;;;;;6.60;3.10;;;12.90;82.00;;;12.26;64.25;101334.47;5085247;28;20044;-89
2023/05/02 08:09:39;;;;;;;7.43;3.15;;;12.90;81.70;;;12.24;64.20;101333.00;5071246;28;20071;-87
2023/05/02 08:12:06;;;;;;;6.18;2.88;;;12.90;81.60;;;12.17;63.77;101332.16;5080977;28;20127;-89
2023/05/02 08:14:34;;;;;;;4.40;2.40;;;12.80;81.00;;;12.07;63.17;101332.53;5083385;28;20381;-89
2023/05/02 08:17:01;;;;;;;5.97;2.63;;;12.70;80.50;;;12.05;63.17;101331.88;5078830;28;20048;-87
2023/05/02 08:19:28;;;;;;;8.90;2.90;;;12.70;80.60;;;12.06;63.45;101342.41;5084735;28;20115;-89
2023/05/02 08:21:55;;;;;;;6.40;2.28;;;12.70;81.00;;;12.05;63.17;101347.94;5079628;28;20482;-88
2023/05/02 08:24:23;;;;;;;5.32;2.30;;;12.70;80.90;;;12.04;62.33;101347.13;5078358;28;20050;-89
2023/05/02 08:26:51;;;;;;;7.07;2.65;;;12.70;80.00;;;12.02;62.91;101356.38;5078025;28;20465;-88
2023/05/02 08:29:18;;;;;;;5.05;2.38;;;12.80;80.50;;;12.02;62.73;101349.16;5081205;28;20139;-87
2023/05/02 08:31:46;;;;;;;4.22;2.30;;;12.70;80.50;;;12.05;63.33;101359.47;5080695;28;20449;-89
2023/05/02 08:34:13;;;;;;;6.10;2.47;;;12.70;81.00;;;12.07;63.17;101359.28;5081677;28;20074;-89
2023/05/02 08:36:40;;;;;;;4.50;2.25;;;12.70;80.80;;;12.05;62.45;101361.28;5082635;28;20068;-87
2023/05/02 08:39:08;;;;;;;5.95;2.85;;;12.70;79.90;;;12.05;62.72;101370.19;5078533;28;20038;-88
2023/05/02 08:41:35;;;;;;;6.80;2.53;;;12.70;80.40;;;12.07;63.09;101373.47;5086345;28;20465;-89
2023/05/02 08:44:06;;;;;;;6.18;2.47;;;12.70;80.60;;;12.04;62.95;101384.53;5083257;28;20043;-88
2023/05/02 08:46:36;;;;;;;5.68;2.47;;;12.70;80.60;;;12.03;63.25;101390.09;5073411;28;20047;-87
2023/05/02 08:49:05;;;;;;;8.30;2.80;;;12.70;80.70;;;11.97;62.97;101397.06;5086438;28;20452;-86
2023/05/02 08:51:34;;;;;;;5.70;2.90;;;12.60;80.30;;;11.94;63.19;101396.63;5079373;28;20135;-89
2023/05/02 08:54:03;;;;;;;6.50;3.22;;;12.60;80.70;;;11.94;63.32;101405.47;5075068;28;20036;-89
2023/05/02 08:56:32;;;;;;;8.88;3.45;;;12.60;81.10;;;11.92;63.88;101404.03;5082378;28;20098;-89
2023/05/02 08:58:59;;;;;;;10.18;4.07;;;12.60;81.20;;;11.89;63.85;101409.75;5075354;28;20033;-89
2023/05/02 09:01:31;;;;;;;6.45;3.13;;;12.50;81.40;;;11.87;63.78;101412.63;5082249;28;20585;-89
2023/05/02 09:03:58;;;;;;;9.93;3.70;;;12.50;81.20;;;11.84;63.40;101419.19;5077163;28;20131;-89
2023/05/02 09:06:28;;;;;;;13.65;4.40;;;12.50;81.00;;;11.80;63.19;101423.22;5101181;28;20051;-89
2023/05/02 09:08:59;;;;;;;9.43;4.28;;;12.50;80.60;;;11.77;63.26;101426.31;5083426;28;20138;-90
2023/05/02 09:11:26;;;;;;;8.40;4.05;;;12.50;80.90;;;11.72;62.76;101436.78;5086494;28;20127;-89
2023/05/02 09:13:53;;;;;;;7.53;4.00;;;12.40;80.20;;;11.69;62.90;101431.81;5076332;28;20050;-89
2023/05/02 09:16:22;;;;;;;7.55;3.30;;;12.40;80.40;;;11.70;62.89;101435.28;5079441;28;20390;-90
2023/05/02 09:18:54;;;;;;;9.90;3.60;;;12.30;80.50;;;11.70;63.18;101433.44;5089329;28;20641;-89
2023/05/02 09:21:24;;;;;;;9.60;3.35;;;12.30;81.00;;;11.69;62.90;101444.34;5090763;28;20459;-90
2023/05/02 09:23:53;;;;;;;8.32;3.75;;;12.30;80.40;;;11.68;62.59;101440.84;5081315;28;20114;-87
2023/05/02 09:26:23;;;;;;;8.60;3.78;;;12.30;80.30;;;11.74;63.53;101445.41;5085812;28;20048;-86
2023/05/02 09:28:53;;;;;;;10.73;4.38;;;12.40;81.40;;;11.78;63.57;101452.00;5084330;28;20036;-85
2023/05/02 09:31:24;;;;;;;10.73;4.05;;;12.40;81.30;;;11.77;62.55;101453.03;5076351;28;20140;-86
2023/05/02 09:33:54;;;;;;;10.88;4.93;;;12.40;80.30;;;11.75;62.99;101459.59;5086629;28;20035;-86
2023/05/02 09:36:22;;;;;;;9.60;5.00;;;12.40;80.50;;;11.73;61.92;101451.78;5088274;28;20431;-86
2023/05/02 09:38:50;;;;;;;7.20;4.53;;;12.40;79.70;;;11.71;62.40;101464.50;5078562;28;20043;-87
2023/05/02 09:41:18;;;;;;;9.05;4.03;;;12.40;80.20;;;11.73;62.38;101465.13;5087242;28;20055;-87
2023/05/02 09:43:56;;;;;;;8.93;4.95;;;12.40;80.10;;;11.71;62.23;101474.34;5072573;28;20475;-93
2023/05/02 09:46:23;;;;;;;9.63;5.15;;;12.30;80.00;;;11.66;61.52;101472.25;5091071;28;20070;-93
2023/05/02 09:48:57;;;;;;;10.77;5.50;;;12.30;79.40;;;11.63;62.23;101478.00;5087657;28;20040;-94
2023/05/02 09:51:25;;;;;;;11.77;5.32;;;12.30;80.00;;;11.63;61.62;101475.34;5087486;28;20114;-95
2023/05/02 09:53:53;;;;;;;10.93;5.93;;;12.30;79.40;;;11.68;62.14;101478.25;5085374;28;20040;-96
2023/05/02 09:56:20;;;;;;;10.32;5.63;;;12.30;80.00;;;11.72;61.88;101490.22;5089024;28;21240;-94
2023/05/02 09:58:48;;;;;;;11.90;6.90;;;12.30;79.80;;;11.71;60.60;101493.91;5081172;28;20079;-94
2023/05/02 10:01:16;;;;;;;12.48;7.20;;;12.30;78.40;;;11.71;60.53;101491.25;5091201;28;20071;-94
2023/05/02 10:03:47;;;;;;;12.45;7.53;;;12.30;78.00;;;11.70;59.53;101502.09;5077477;28;20049;-93
2023/05/02 10:06:18;;;;;;;13.40;6.70;;;12.30;77.30;;;11.63;59.30;101494.03;5089918;28;20123;-95
2023/05/02 10:08:47;;;;;;;11.57;5.80;;;12.30;76.80;;;11.68;60.26;101488.13;5090231;28;20123;-93
2023/05/02 10:11:15;;;;;;;10.48;5.40;;;12.30;77.80;;;11.76;60.44;101491.50;5080658;28;20047;-85
2023/05/02 10:13:44;;;;;;;13.18;5.07;;;12.40;78.20;;;11.82;60.06;101492.59;5088214;28;20621;-89
2023/05/02 10:16:14;;;;;;;12.50;5.50;;;12.40;77.50;;;11.93;61.08;101491.22;5081133;28;20044;-89